CheckWX is a tool to help pilots better visualize weather data.  It is not intended as a substitute for an official pre-flight weather briefing.

21:38:45 UTC

KLWA METAR
South Haven Area Regional Airport
South Haven, Michigan, USA
Current

23 mins ago

KLWA 232116Z AUTO 28008KT 10SM CLR 21/09 A3003 RMK AO2 T02070086
Observed
May-23 @ 21:16 UTC
Wind
  • 280° at 8 KTS
Visibility
10 SM
Flight Rules
VFR
Cloud Levels
  • Clear skies
Temperature
21°C / 70°F
Dewpoint
C / 48°F
Humidity
46%
Altimeter
30.03" Hg
Pressure
1016.92 hPa
Previous

43 mins ago

KLWA 232056Z AUTO 28010G14KT 10SM CLR 21/09 A3002 RMK AO2 T02070085
Observed
May-23 @ 20:56 UTC
Wind
  • 280° at 10 KTS
  • Gusting to 14 KTS
Visibility
10 SM
Flight Rules
VFR
Cloud Levels
  • Clear skies
Temperature
21°C / 70°F
Dewpoint
C / 48°F
Humidity
46%
Altimeter
30.02" Hg
Pressure
1016.62 hPa
Previous

1 hour ago

KLWA 232036Z AUTO 28007G14KT 10SM CLR 21/08 A3003 RMK AO2 T02090083
Observed
May-23 @ 20:36 UTC
Wind
  • 280° at 7 KTS
  • Gusting to 14 KTS
Visibility
10 SM
Flight Rules
VFR
Cloud Levels
  • Clear skies
Temperature
21°C / 70°F
Dewpoint
C / 46°F
Humidity
43%
Altimeter
30.03" Hg
Pressure
1016.92 hPa